createdAt,value
2022-11-17T00:02:00.451Z,84933.75
2022-11-17T00:04:30.584Z,84963.50
2022-11-17T00:06:58.636Z,84925.50
2022-11-17T00:09:26.224Z,84946.25
2022-11-17T00:12:11.763Z,84928.19
2022-11-17T00:14:40.722Z,84959.03
2022-11-17T00:17:12.794Z,84916.97
2022-11-17T00:19:58.861Z,84934.31
2022-11-17T00:22:26.059Z,84942.25
2022-11-17T00:24:52.997Z,84929.19
2022-11-17T00:27:20.053Z,84931.41
2022-11-17T00:29:47.020Z,84930.34
2022-11-17T00:32:33.858Z,84918.53
2022-11-17T00:35:01.158Z,84937.63
2022-11-17T00:37:30.260Z,84956.63
2022-11-17T00:40:00.699Z,84941.59
2022-11-17T00:42:28.210Z,84947.22
2022-11-17T00:44:55.165Z,84945.59
2022-11-17T00:47:22.154Z,84945.28
2022-11-17T00:49:49.217Z,84979.66
2022-11-17T00:52:16.117Z,84949.13
2022-11-17T00:54:43.026Z,84913.59
2022-11-17T00:57:09.914Z,84952.66
2022-11-17T00:59:36.872Z,84965.88
2022-11-17T01:02:04.342Z,84887.56
2022-11-17T01:04:31.218Z,84924.16
2022-11-17T01:06:58.153Z,84938.19
2022-11-17T01:09:25.205Z,84923.03
2022-11-17T01:11:53.279Z,84932.63
2022-11-17T01:14:26.688Z,84950.22
2022-11-17T01:16:54.570Z,84936.59
2022-11-17T01:19:23.061Z,84910.09
2022-11-17T01:21:50.130Z,84939.00
2022-11-17T01:24:17.964Z,84920.88
2022-11-17T01:26:45.923Z,84918.63
2022-11-17T01:29:17.222Z,84899.31
2022-11-17T01:31:45.711Z,84918.59
2022-11-17T01:34:13.152Z,84937.13
2022-11-17T01:37:01.030Z,84933.94
2022-11-17T01:39:30.063Z,84926.16
2022-11-17T01:41:57.937Z,84875.88
2022-11-17T01:45:01.409Z,84920.59
2022-11-17T01:47:52.547Z,84897.78
2022-11-17T01:50:28.586Z,84923.84
2022-11-17T01:53:01.320Z,84892.41
2022-11-17T01:55:41.904Z,84883.84
2022-11-17T01:58:13.796Z,84913.69
2022-11-17T02:00:41.317Z,84898.09
2022-11-17T02:03:09.107Z,84897.97
2022-11-17T02:06:00.407Z,84913.63
2022-11-17T02:08:30.648Z,84912.41
2022-11-17T02:10:58.601Z,84925.34
2022-11-17T02:13:25.594Z,84921.69
2022-11-17T02:15:52.521Z,84919.53
2022-11-17T02:18:20.929Z,84918.97
2022-11-17T02:21:09.677Z,84938.53
2022-11-17T02:24:00.520Z,84936.97
2022-11-17T02:26:55.442Z,84937.22
2022-11-17T02:29:37.220Z,84903.25
2022-11-17T02:32:29.404Z,84919.97
2022-11-17T02:35:17.886Z,84915.91
2022-11-17T02:37:52.278Z,84908.13
2022-11-17T02:40:25.010Z,84890.50
2022-11-17T02:43:17.642Z,84912.69
2022-11-17T02:46:11.054Z,84908.09
2022-11-17T02:48:45.097Z,84897.16
2022-11-17T02:51:19.276Z,84891.25
2022-11-17T02:53:46.916Z,84876.88
2022-11-17T02:56:13.812Z,84890.34
2022-11-17T02:58:40.679Z,84849.72
2022-11-17T03:01:22.470Z,84899.53
2022-11-17T03:04:05.661Z,84894.72
2022-11-17T03:06:51.875Z,84849.03
2022-11-17T03:09:49.853Z,84883.31
2022-11-17T03:12:25.030Z,84880.63
2022-11-17T03:15:00.948Z,84868.81
2022-11-17T03:17:38.582Z,84882.06
2022-11-17T03:20:15.922Z,84892.19
2022-11-17T03:22:51.625Z,84901.72
2022-11-17T03:25:23.209Z,84870.09
2022-11-17T03:27:57.222Z,84865.38
2022-11-17T03:30:26.178Z,84888.28
2022-11-17T03:32:58.903Z,84874.91
2022-11-17T03:35:29.158Z,84874.19
2022-11-17T03:38:01.617Z,84894.41
2022-11-17T03:40:31.567Z,84877.38
2022-11-17T03:43:06.327Z,84859.69
2022-11-17T03:45:38.180Z,84873.66
2022-11-17T03:48:14.562Z,84876.69
2022-11-17T03:50:47.991Z,84879.03
2022-11-17T03:53:15.201Z,84859.28
2022-11-17T03:55:50.538Z,84879.03
2022-11-17T03:58:22.115Z,84866.31
2022-11-17T04:00:53.383Z,84832.50
2022-11-17T04:03:23.831Z,84881.84
2022-11-17T04:05:50.702Z,84846.22
2022-11-17T04:08:17.665Z,84878.19
2022-11-17T04:11:02.821Z,84857.13
2022-11-17T04:13:48.422Z,84847.84
2022-11-17T04:16:15.371Z,84877.25
2022-11-17T04:18:42.268Z,84877.94
2022-11-17T04:21:09.186Z,84853.22
2022-11-17T04:23:36.479Z,84867.00
2022-11-17T04:26:21.944Z,84855.53
2022-11-17T04:28:50.181Z,84886.16
2022-11-17T04:31:23.529Z,84862.34
2022-11-17T04:33:55.703Z,84856.13
2022-11-17T04:36:35.795Z,84865.06
2022-11-17T04:39:03.664Z,84841.78
2022-11-17T04:41:49.322Z,84875.88
2022-11-17T04:44:17.863Z,84879.44
2022-11-17T04:46:48.735Z,84870.56
2022-11-17T04:49:17.360Z,84861.44
2022-11-17T04:51:45.210Z,84851.69
2022-11-17T04:54:14.443Z,84826.38
2022-11-17T04:56:42.033Z,84834.63
2022-11-17T04:59:09.059Z,84799.72
2022-11-17T05:01:36.214Z,84801.41
2022-11-17T05:04:06.721Z,84839.81
2022-11-17T05:06:39.118Z,84849.41
2022-11-17T05:09:16.890Z,84841.16
2022-11-17T05:12:02.870Z,84829.44
2022-11-17T05:14:30.724Z,84822.97
2022-11-17T05:17:10.043Z,84831.66
2022-11-17T05:19:45.562Z,84822.00
2022-11-17T05:22:38.932Z,84811.34
2022-11-17T05:25:06.915Z,84821.84
2022-11-17T05:27:34.585Z,84796.78
2022-11-17T05:30:03.245Z,84804.19
2022-11-17T05:32:30.124Z,84783.47
2022-11-17T05:34:56.955Z,84843.78
2022-11-17T05:37:23.848Z,84838.78
2022-11-17T05:39:50.721Z,84845.75
2022-11-17T05:42:17.749Z,84853.31
2022-11-17T05:44:46.528Z,84754.34
2022-11-17T05:47:13.394Z,84831.41
2022-11-17T05:49:40.332Z,84828.00
2022-11-17T05:52:07.235Z,84828.97
2022-11-17T05:54:34.346Z,84812.16
2022-11-17T05:57:08.760Z,84829.88
2022-11-17T05:59:53.337Z,84817.34
2022-11-17T06:02:43.761Z,84756.75
2022-11-17T06:05:14.418Z,84808.69
2022-11-17T06:07:44.006Z,84805.34
2022-11-17T06:10:10.988Z,84810.09
2022-11-17T06:12:37.956Z,84786.47
2022-11-17T06:15:05.386Z,84821.13
2022-11-17T06:17:40.847Z,84848.66
2022-11-17T06:20:18.809Z,84858.19
2022-11-17T06:22:48.525Z,84797.91
2022-11-17T06:25:17.286Z,84850.38
2022-11-17T06:27:45.501Z,84849.06
2022-11-17T06:30:12.735Z,84829.19
2022-11-17T06:32:43.834Z,84825.13
2022-11-17T06:35:13.549Z,84832.47
2022-11-17T06:37:40.501Z,84822.88
2022-11-17T06:40:08.210Z,84850.53
2022-11-17T06:42:53.690Z,84835.88
2022-11-17T06:45:20.593Z,84836.75
2022-11-17T06:47:47.610Z,84835.56
2022-11-17T06:50:14.482Z,84819.72
2022-11-17T06:52:41.421Z,84825.69
2022-11-17T06:55:08.918Z,84781.94
2022-11-17T06:57:36.111Z,84726.88
2022-11-17T07:00:05.109Z,84820.63
2022-11-17T07:02:32.622Z,84801.81
2022-11-17T07:04:59.780Z,84829.25
2022-11-17T07:07:26.780Z,84820.22
2022-11-17T07:09:53.840Z,84813.50
2022-11-17T07:12:20.754Z,84845.69
2022-11-17T07:14:47.704Z,84784.28
2022-11-17T07:17:14.695Z,84811.91
2022-11-17T07:19:41.702Z,84786.06
2022-11-17T07:22:08.673Z,84803.66
2022-11-17T07:24:35.702Z,84808.50
2022-11-17T07:27:04.845Z,84834.84
2022-11-17T07:29:31.788Z,84823.03
2022-11-17T07:31:58.703Z,84847.72
2022-11-17T07:34:25.736Z,84778.81
2022-11-17T07:36:52.741Z,84848.84
2022-11-17T07:39:21.797Z,84854.97
2022-11-17T07:41:49.002Z,84854.22
2022-11-17T07:44:16.255Z,84827.66
2022-11-17T07:46:45.093Z,84829.31
2022-11-17T07:49:12.055Z,84864.56
2022-11-17T07:51:39.224Z,84831.22
2022-11-17T07:54:06.210Z,84820.19
2022-11-17T07:56:34.594Z,84830.44
2022-11-17T07:59:01.695Z,84794.59
2022-11-17T08:01:29.811Z,84858.44
2022-11-17T08:03:57.973Z,84853.84
2022-11-17T08:06:25.419Z,84849.28
2022-11-17T08:08:53.731Z,84856.50
2022-11-17T08:11:21.127Z,84869.91
2022-11-17T08:13:48.259Z,84856.13
2022-11-17T08:16:15.283Z,84834.81
2022-11-17T08:18:45.987Z,84854.56
2022-11-17T08:21:15.937Z,84853.16
2022-11-17T08:23:42.875Z,84854.41
2022-11-17T08:26:11.865Z,84817.56
2022-11-17T08:28:39.673Z,84835.28
2022-11-17T08:31:08.056Z,84841.16
2022-11-17T08:33:35.561Z,84850.66
2022-11-17T08:36:04.821Z,84848.50
2022-11-17T08:38:31.942Z,84840.38
2022-11-17T08:41:01.613Z,84839.25
2022-11-17T08:43:28.777Z,84806.78
2022-11-17T08:45:56.119Z,84830.09
2022-11-17T08:48:24.830Z,84857.41
2022-11-17T08:50:52.336Z,84850.28
2022-11-17T08:53:21.720Z,84849.13
2022-11-17T08:55:48.802Z,84864.47
2022-11-17T08:58:16.104Z,84835.16
2022-11-17T09:00:43.219Z,84814.06
2022-11-17T09:03:11.206Z,84851.41
2022-11-17T09:05:45.045Z,84813.56
2022-11-17T09:08:44.040Z,84823.59
2022-11-17T09:11:08.181Z,84845.31
2022-11-17T09:13:35.942Z,84839.13
2022-11-17T09:16:05.040Z,84817.19
2022-11-17T09:18:32.107Z,84828.34
2022-11-17T09:21:03.416Z,84836.72
2022-11-17T09:23:31.828Z,84826.06
2022-11-17T09:26:04.155Z,84789.88
2022-11-17T09:28:31.912Z,84816.53
2022-11-17T09:31:01.241Z,84767.50
2022-11-17T09:33:28.392Z,84774.22
2022-11-17T09:35:59.717Z,84795.16
2022-11-17T09:38:26.835Z,84781.88
2022-11-17T09:40:56.140Z,84815.09
2022-11-17T09:43:30.185Z,84778.97
2022-11-17T09:46:07.824Z,84800.91
2022-11-17T09:48:44.400Z,84812.97
2022-11-17T09:51:15.284Z,84789.75
2022-11-17T09:54:00.730Z,84827.94
2022-11-17T09:56:27.885Z,84801.31
2022-11-17T09:59:04.510Z,84790.06
2022-11-17T10:01:31.701Z,84794.63
2022-11-17T10:04:00.268Z,84799.41
2022-11-17T10:06:32.105Z,84814.19
2022-11-17T10:09:11.661Z,84825.75
2022-11-17T10:11:41.952Z,84796.88
2022-11-17T10:14:08.831Z,84829.25
2022-11-17T10:16:37.710Z,84829.69
2022-11-17T10:19:19.231Z,84842.28
2022-11-17T10:21:51.717Z,84794.19
2022-11-17T10:24:52.382Z,84831.31
2022-11-17T10:27:26.586Z,84825.78
2022-11-17T10:29:56.352Z,84827.38
2022-11-17T10:32:23.449Z,84786.03
2022-11-17T10:34:50.612Z,84828.34
2022-11-17T10:37:20.644Z,84819.03
2022-11-17T10:39:47.606Z,84819.72
2022-11-17T10:42:20.552Z,84811.66
2022-11-17T10:44:54.502Z,84816.06
2022-11-17T10:47:35.724Z,84768.91
2022-11-17T10:50:08.873Z,84795.59
2022-11-17T10:52:35.909Z,84778.50
2022-11-17T10:55:21.818Z,84804.22
2022-11-17T10:57:53.673Z,84793.75
2022-11-17T11:00:38.896Z,84787.50
2022-11-17T11:03:20.795Z,84797.75
2022-11-17T11:06:04.371Z,84805.22
2022-11-17T11:08:53.599Z,84810.19
2022-11-17T11:11:46.488Z,84790.31
2022-11-17T11:14:37.141Z,84799.09
2022-11-17T11:17:15.888Z,84802.00
2022-11-17T11:19:46.081Z,84790.31
2022-11-17T11:22:21.399Z,84790.75
2022-11-17T11:25:32.636Z,84795.72
2022-11-17T11:28:08.363Z,84823.66
2022-11-17T11:30:47.518Z,84825.88
2022-11-17T11:33:23.996Z,84833.22
2022-11-17T11:36:03.413Z,84799.47
2022-11-17T11:38:48.358Z,84830.97
2022-11-17T11:41:32.002Z,84839.91
2022-11-17T11:44:01.841Z,84837.88
2022-11-17T11:46:46.798Z,84845.38
2022-11-17T11:49:35.034Z,84846.75
2022-11-17T11:52:05.092Z,84836.22
2022-11-17T11:54:32.213Z,84845.69
2022-11-17T11:57:00.760Z,84845.44
2022-11-17T11:59:45.457Z,84811.97
2022-11-17T12:02:23.386Z,84841.44
2022-11-17T12:05:21.520Z,84855.13
2022-11-17T12:07:57.518Z,84846.16
2022-11-17T12:10:49.744Z,84842.56
2022-11-17T12:13:20.896Z,84845.47
2022-11-17T12:15:48.042Z,84807.34
2022-11-17T12:18:35.270Z,84836.34
2022-11-17T12:21:03.916Z,84800.19
2022-11-17T12:23:36.791Z,84822.16
2022-11-17T12:26:04.528Z,84833.03
2022-11-17T12:28:31.544Z,84827.38
2022-11-17T12:31:10.401Z,84825.91
2022-11-17T12:33:52.847Z,84841.84
2022-11-17T12:36:34.437Z,84842.53
2022-11-17T12:39:04.097Z,84802.78
2022-11-17T12:41:49.219Z,84824.31
2022-11-17T12:44:40.855Z,84812.56
2022-11-17T12:47:17.185Z,84824.16
2022-11-17T12:50:15.072Z,84818.38
2022-11-17T12:52:50.925Z,84820.53
2022-11-17T12:55:29.644Z,84841.94
2022-11-17T12:58:07.670Z,84844.06
2022-11-17T13:01:05.776Z,84835.03
2022-11-17T13:03:48.380Z,84827.22
2022-11-17T13:09:03.831Z,84850.22
2022-11-17T13:11:31.014Z,84850.69
2022-11-17T13:14:16.434Z,84861.38
2022-11-17T13:16:49.831Z,84839.03
2022-11-17T13:19:39.343Z,84875.09
2022-11-17T13:22:18.848Z,84871.13
2022-11-17T13:24:48.910Z,84877.59
2022-11-17T13:27:30.315Z,84883.47
2022-11-17T13:30:15.698Z,84882.34
2022-11-17T13:32:43.281Z,84886.56
2022-11-17T13:35:32.494Z,84875.28
2022-11-17T13:38:23.748Z,84881.25
2022-11-17T13:40:53.699Z,84871.56
2022-11-17T13:43:22.812Z,84883.78
2022-11-17T13:45:51.370Z,84881.47
2022-11-17T13:48:39.036Z,84875.69
2022-11-17T13:51:25.612Z,84870.63
2022-11-17T13:53:58.031Z,84893.41
2022-11-17T13:56:30.600Z,84885.66
2022-11-17T13:58:59.707Z,84891.66
2022-11-17T14:01:29.513Z,84883.34
2022-11-17T14:04:32.019Z,84863.84
2022-11-17T14:07:03.308Z,84877.97
2022-11-17T14:09:32.177Z,84894.91
2022-11-17T14:11:59.384Z,84907.97
2022-11-17T14:14:40.513Z,84892.97
2022-11-17T14:17:22.362Z,84890.34
2022-11-17T14:19:49.334Z,84907.88
2022-11-17T14:22:23.443Z,84923.16
2022-11-17T14:24:52.208Z,84905.41
2022-11-17T14:27:32.012Z,84904.06
2022-11-17T14:29:58.913Z,84895.63
2022-11-17T14:32:25.918Z,84877.09
2022-11-17T14:34:52.978Z,84917.41
2022-11-17T14:37:19.921Z,84900.13
2022-11-17T14:39:46.815Z,84902.50
2022-11-17T14:42:14.610Z,84902.34
2022-11-17T14:44:41.519Z,84893.47
2022-11-17T14:47:08.532Z,84891.09
2022-11-17T14:49:35.360Z,84897.00
2022-11-17T14:52:02.885Z,84906.94
2022-11-17T14:54:29.964Z,84924.75
2022-11-17T14:56:56.924Z,84932.59
2022-11-17T14:59:23.835Z,84910.72
2022-11-17T15:01:50.702Z,84933.56
2022-11-17T15:07:04.765Z,84934.34
2022-11-17T15:09:31.870Z,84929.44
2022-11-17T15:11:58.785Z,84894.25
2022-11-17T15:14:26.025Z,84938.31
2022-11-17T15:16:52.952Z,84944.72
2022-11-17T15:19:19.972Z,84898.88
2022-11-17T15:21:46.881Z,84941.91
2022-11-17T15:24:14.137Z,84926.56
2022-11-17T15:26:41.193Z,84917.78
2022-11-17T15:29:12.182Z,84948.81
2022-11-17T15:31:39.212Z,84953.56
2022-11-17T15:34:06.766Z,84951.63
2022-11-17T15:36:33.779Z,84958.91
2022-11-17T15:39:00.658Z,84944.97
2022-11-17T15:41:32.605Z,84935.91
2022-11-17T15:44:00.235Z,84941.34
2022-11-17T15:46:27.370Z,84952.84
2022-11-17T15:48:55.778Z,84955.69
2022-11-17T15:51:25.473Z,84941.56
2022-11-17T15:53:56.469Z,84970.19
2022-11-17T15:56:28.500Z,84962.56
2022-11-17T15:59:03.301Z,84958.44
2022-11-17T16:01:39.654Z,84930.28
2022-11-17T16:04:08.950Z,84941.13
2022-11-17T16:06:39.669Z,84957.16
2022-11-17T16:09:07.241Z,84965.53
2022-11-17T16:11:34.781Z,84946.19
2022-11-17T16:14:02.839Z,84931.63
2022-11-17T16:16:36.596Z,84959.94
2022-11-17T16:19:05.107Z,84961.00
2022-11-17T16:21:32.407Z,84959.16
2022-11-17T16:24:01.063Z,84934.63
2022-11-17T16:26:28.964Z,84960.75
2022-11-17T16:29:01.005Z,84987.97
2022-11-17T16:31:30.544Z,84943.25
2022-11-17T16:33:59.557Z,84992.06
2022-11-17T16:36:34.561Z,84975.66
2022-11-17T16:39:04.811Z,84955.44
2022-11-17T16:41:34.876Z,84993.72
2022-11-17T16:44:02.948Z,84960.56
2022-11-17T16:46:31.556Z,84953.00
2022-11-17T16:49:03.914Z,84980.16
2022-11-17T16:51:31.051Z,85008.03
2022-11-17T16:54:04.383Z,85013.63
2022-11-17T16:56:32.716Z,84972.13
2022-11-17T16:59:00.292Z,84999.47
2022-11-17T17:01:32.554Z,85020.94
2022-11-17T17:04:01.669Z,85015.41
2022-11-17T17:06:29.082Z,84998.75
2022-11-17T17:09:01.206Z,85014.88
2022-11-17T17:11:29.419Z,85002.75
2022-11-17T17:14:00.454Z,84972.84
2022-11-17T17:16:27.731Z,84987.06
2022-11-17T17:18:59.806Z,84963.69
2022-11-17T17:21:28.424Z,84997.75
2022-11-17T17:23:55.987Z,84988.78
2022-11-17T17:26:25.135Z,84961.75
2022-11-17T17:29:00.380Z,85025.06
2022-11-17T17:31:34.575Z,85018.38
2022-11-17T17:34:01.887Z,85026.53
2022-11-17T17:36:29.901Z,85015.97
2022-11-17T17:38:59.895Z,85025.38
2022-11-17T17:41:29.709Z,85036.44
2022-11-17T17:44:02.201Z,85042.09
2022-11-17T17:46:30.911Z,85021.69
2022-11-17T17:48:58.419Z,85023.19
2022-11-17T17:51:27.850Z,85001.53
2022-11-17T17:53:58.196Z,85046.22
2022-11-17T17:56:25.638Z,85044.84
2022-11-17T17:58:55.395Z,85043.22
2022-11-17T18:01:25.289Z,85050.16
2022-11-17T18:03:55.191Z,85051.47
2022-11-17T18:06:22.767Z,85016.06
2022-11-17T18:08:50.247Z,85048.50
2022-11-17T18:11:21.199Z,85046.50
2022-11-17T18:13:50.688Z,85028.28
2022-11-17T18:16:28.366Z,85044.41
2022-11-17T18:19:00.443Z,85034.41
2022-11-17T18:21:28.729Z,85048.41
2022-11-17T18:23:56.865Z,85055.56
2022-11-17T18:26:32.773Z,85048.34
2022-11-17T18:29:05.237Z,85051.63
2022-11-17T18:31:35.218Z,85053.06
2022-11-17T18:34:08.446Z,85044.16
2022-11-17T18:36:35.869Z,85018.50
2022-11-17T18:39:03.766Z,84991.13
2022-11-17T18:41:33.729Z,85050.63
2022-11-17T18:44:01.547Z,85004.44
2022-11-17T18:46:31.161Z,85043.06
2022-11-17T18:48:59.052Z,85034.34
2022-11-17T18:51:28.563Z,85034.25
2022-11-17T18:53:57.534Z,85008.66
2022-11-17T18:56:31.380Z,85010.94
2022-11-17T18:58:58.428Z,85024.78
2022-11-17T19:01:28.085Z,85032.88
2022-11-17T19:03:57.347Z,85035.47
2022-11-17T19:06:25.498Z,85034.41
2022-11-17T19:08:53.248Z,85039.38
2022-11-17T19:11:22.019Z,85048.97
2022-11-17T19:13:49.386Z,85044.00
2022-11-17T19:16:22.095Z,85038.75
2022-11-17T19:18:51.179Z,85021.31
2022-11-17T19:21:20.604Z,85022.66
2022-11-17T19:23:51.880Z,85029.44
2022-11-17T19:26:21.853Z,85022.03
2022-11-17T19:28:49.249Z,85021.78
2022-11-17T19:31:20.583Z,85048.28
2022-11-17T19:33:49.077Z,85042.59
2022-11-17T19:36:21.348Z,85059.06
2022-11-17T19:38:50.331Z,85047.31
2022-11-17T19:41:20.243Z,85025.69
2022-11-17T19:43:47.484Z,85053.53
2022-11-17T19:46:16.633Z,85046.16
2022-11-17T19:48:44.454Z,85043.81
2022-11-17T19:51:14.815Z,85035.22
2022-11-17T19:53:42.157Z,85051.38
2022-11-17T19:56:09.627Z,85044.69
2022-11-17T19:58:36.652Z,85044.50
2022-11-17T20:01:13.534Z,85051.94
2022-11-17T20:03:41.474Z,85065.94
2022-11-17T20:06:10.599Z,85035.97
2022-11-17T20:08:38.413Z,85064.97
2022-11-17T20:11:14.631Z,85073.28
2022-11-17T20:13:44.274Z,85083.13
2022-11-17T20:16:14.004Z,85089.13
2022-11-17T20:18:42.583Z,85074.78
2022-11-17T20:21:10.563Z,85078.69
2022-11-17T20:23:39.357Z,85072.31
2022-11-17T20:26:09.268Z,85061.94
2022-11-17T20:28:37.627Z,85058.16
2022-11-17T20:31:25.988Z,85070.13
2022-11-17T20:33:59.799Z,85075.81
2022-11-17T20:36:28.438Z,85059.25
2022-11-17T20:39:00.917Z,85074.03
2022-11-17T20:41:28.540Z,85073.34
2022-11-17T20:43:58.041Z,85052.28
2022-11-17T20:46:25.710Z,85075.06
2022-11-17T20:48:52.945Z,85076.44
2022-11-17T20:51:22.094Z,85049.06
2022-11-17T20:53:49.554Z,85085.94
2022-11-17T20:56:17.912Z,85072.53
2022-11-17T20:58:45.266Z,85037.78
2022-11-17T21:01:15.909Z,85079.47
2022-11-17T21:03:44.058Z,85078.09
2022-11-17T21:06:11.756Z,85074.28
2022-11-17T21:08:41.129Z,85076.19
2022-11-17T21:11:11.349Z,85070.66
2022-11-17T21:13:38.911Z,85038.97
2022-11-17T21:16:14.106Z,85062.25
2022-11-17T21:18:48.741Z,85082.50
2022-11-17T21:21:16.144Z,85077.06
2022-11-17T21:23:47.012Z,85075.88
2022-11-17T21:26:18.967Z,85082.69
2022-11-17T21:28:46.915Z,85086.72
2022-11-17T21:31:19.301Z,85054.94
2022-11-17T21:33:46.936Z,85070.28
2022-11-17T21:36:16.572Z,85060.31
2022-11-17T21:38:45.160Z,85079.78
2022-11-17T21:41:16.814Z,85084.53
2022-11-17T21:43:46.696Z,85085.44
2022-11-17T21:46:24.731Z,85071.44
2022-11-17T21:48:52.927Z,85068.88
2022-11-17T21:51:22.217Z,85079.53
2022-11-17T21:53:53.545Z,85078.09
2022-11-17T21:56:21.036Z,85047.00
2022-11-17T21:58:48.053Z,85080.84
2022-11-17T22:01:16.468Z,85072.13
2022-11-17T22:03:43.603Z,85053.78
2022-11-17T22:06:18.191Z,85083.03
2022-11-17T22:08:46.436Z,85078.72
2022-11-17T22:11:16.086Z,84998.88
2022-11-17T22:13:45.698Z,85094.81
2022-11-17T22:16:14.160Z,85081.25
2022-11-17T22:18:42.108Z,85076.97
2022-11-17T22:21:09.713Z,85036.28
2022-11-17T22:23:36.728Z,85094.91
2022-11-17T22:26:06.519Z,85096.75
2022-11-17T22:28:33.819Z,85097.19
2022-11-17T22:31:09.358Z,85096.13
2022-11-17T22:33:40.187Z,85098.63
2022-11-17T22:36:08.018Z,85105.44
2022-11-17T22:38:35.080Z,85084.97
2022-11-17T22:41:03.708Z,85075.03
2022-11-17T22:43:30.822Z,85108.97
2022-11-17T22:46:01.915Z,85107.06
2022-11-17T22:48:28.936Z,85102.31
2022-11-17T22:51:00.137Z,85078.28
2022-11-17T22:53:27.875Z,85094.72
2022-11-17T22:55:55.505Z,85055.09
2022-11-17T22:58:22.464Z,85054.75
2022-11-17T23:00:49.472Z,85075.66
2022-11-17T23:03:16.533Z,85069.03
2022-11-17T23:05:43.682Z,85102.97
2022-11-17T23:08:10.676Z,85052.53
2022-11-17T23:10:40.728Z,85075.59
2022-11-17T23:13:07.802Z,85095.31
2022-11-17T23:15:38.919Z,85097.09
2022-11-17T23:18:06.027Z,85088.91
2022-11-17T23:20:33.335Z,85097.34
2022-11-17T23:23:00.701Z,85095.41
2022-11-17T23:25:27.719Z,85070.25
2022-11-17T23:27:54.739Z,85046.78
2022-11-17T23:30:21.820Z,85015.16
2022-11-17T23:32:48.961Z,85028.97
2022-11-17T23:35:16.105Z,85081.97
2022-11-17T23:37:43.133Z,85075.34
2022-11-17T23:40:10.861Z,85072.47
2022-11-17T23:42:42.909Z,85084.56
2022-11-17T23:45:12.174Z,85008.41
2022-11-17T23:47:39.514Z,85088.34
2022-11-17T23:50:06.970Z,85042.69
2022-11-17T23:52:33.892Z,85096.09
2022-11-17T23:55:00.860Z,85082.06
2022-11-17T23:57:27.742Z,85065.78
2022-11-17T23:59:54.673Z,85084.31
